createdAt,value
2023-04-13T00:02:13.226Z,0.52
2023-04-13T00:06:14.942Z,0.45
2023-04-13T00:10:18.958Z,0.55
2023-04-13T00:14:20.584Z,0.60
2023-04-13T00:18:23.826Z,0.70
2023-04-13T00:22:29.551Z,0.60
2023-04-13T00:26:31.388Z,0.68
2023-04-13T00:30:33.344Z,0.50
2023-04-13T00:34:35.011Z,0.50
2023-04-13T00:38:37.610Z,0.73
2023-04-13T00:42:39.265Z,0.37
2023-04-13T00:46:42.361Z,0.45
2023-04-13T00:50:45.051Z,0.70
2023-04-13T00:54:48.408Z,0.32
2023-04-13T00:58:50.058Z,0.50
2023-04-13T01:02:52.421Z,0.43
2023-04-13T01:07:12.469Z,0.50
2023-04-13T01:11:27.654Z,0.60
2023-04-13T01:15:36.930Z,0.30
2023-04-13T01:19:57.972Z,0.50
2023-04-13T01:24:45.017Z,0.50
2023-04-13T01:28:47.654Z,0.60
2023-04-13T01:32:51.524Z,0.47
2023-04-13T01:36:53.895Z,0.40
2023-04-13T01:40:55.937Z,0.32
2023-04-13T01:44:57.622Z,0.50
2023-04-13T01:49:10.181Z,0.43
2023-04-13T01:53:17.585Z,0.45
2023-04-13T01:57:21.272Z,0.50
2023-04-13T02:01:23.999Z,0.60
2023-04-13T02:05:27.336Z,0.30
2023-04-13T02:09:28.983Z,0.40
2023-04-13T02:13:30.948Z,0.50
2023-04-13T02:17:32.682Z,0.50
2023-04-13T02:21:34.896Z,0.50
2023-04-13T02:25:37.394Z,0.90
2023-04-13T02:29:39.046Z,0.40
2023-04-13T02:33:40.940Z,0.50
2023-04-13T02:37:42.605Z,0.40
2023-04-13T02:41:44.220Z,0.35
2023-04-13T02:45:46.196Z,0.30
2023-04-13T02:49:47.933Z,0.50
2023-04-13T02:53:49.600Z,0.50
2023-04-13T02:57:51.414Z,0.40
2023-04-13T03:01:53.916Z,0.50
2023-04-13T03:05:55.625Z,0.60
2023-04-13T03:09:57.333Z,0.68
2023-04-13T03:14:01.344Z,0.40
2023-04-13T03:18:04.142Z,0.47
2023-04-13T03:22:05.880Z,0.40
2023-04-13T03:26:07.533Z,0.40
2023-04-13T03:30:09.671Z,0.30
2023-04-13T03:34:11.313Z,0.60
2023-04-13T03:38:13.030Z,0.50
2023-04-13T03:42:14.720Z,0.40
2023-04-13T03:46:16.801Z,0.40
2023-04-13T03:50:18.528Z,0.47
2023-04-13T03:54:20.162Z,0.40
2023-04-13T03:58:21.866Z,0.30
2023-04-13T04:02:23.596Z,0.30
2023-04-13T04:06:26.991Z,0.40
2023-04-13T04:10:28.746Z,0.60
2023-04-13T04:14:30.827Z,0.37
2023-04-13T04:18:32.837Z,0.32
2023-04-13T04:22:36.504Z,0.43
2023-04-13T04:26:38.178Z,0.40
2023-04-13T04:30:40.839Z,0.40
2023-04-13T04:34:43.130Z,0.50
2023-04-13T04:38:45.574Z,0.82
2023-04-13T04:42:47.248Z,0.50
2023-04-13T04:46:48.906Z,1.00
2023-04-13T04:50:52.402Z,0.90
2023-04-13T04:54:54.077Z,0.52
2023-04-13T04:58:55.907Z,0.40
2023-04-13T05:02:58.099Z,0.70
2023-04-13T05:06:59.786Z,0.50
2023-04-13T05:11:01.720Z,0.73
2023-04-13T05:15:04.213Z,0.68
2023-04-13T05:19:08.418Z,0.55
2023-04-13T05:23:10.148Z,0.60
2023-04-13T05:27:13.288Z,0.68
2023-04-13T05:31:15.627Z,0.50
2023-04-13T05:35:17.374Z,0.75
2023-04-13T05:39:21.981Z,0.65
2023-04-13T05:43:24.143Z,0.70
2023-04-13T05:47:25.887Z,0.95
2023-04-13T05:51:31.684Z,0.80
2023-04-13T05:55:33.530Z,0.77
2023-04-13T05:59:35.542Z,0.52
2023-04-13T06:03:37.561Z,0.80
2023-04-13T06:07:39.719Z,0.73
2023-04-13T06:11:41.686Z,0.73
2023-04-13T06:15:43.775Z,0.88
2023-04-13T06:19:45.827Z,1.05
2023-04-13T06:23:47.532Z,2.05
2023-04-13T06:27:49.861Z,1.27
2023-04-13T06:31:51.959Z,1.10
2023-04-13T06:35:53.632Z,1.55
2023-04-13T06:39:55.445Z,0.85
2023-04-13T06:43:57.368Z,1.10
2023-04-13T06:48:00.302Z,1.10
2023-04-13T06:52:02.196Z,0.98
2023-04-13T06:56:04.089Z,0.98
2023-04-13T07:00:15.432Z,0.90
2023-04-13T07:04:26.541Z,0.80
2023-04-13T07:08:29.882Z,1.10
2023-04-13T07:12:33.912Z,0.60
2023-04-13T07:16:35.835Z,0.62
2023-04-13T07:20:39.527Z,0.60
2023-04-13T07:24:41.542Z,0.80
2023-04-13T07:28:43.244Z,0.90
2023-04-13T07:32:45.246Z,0.90
2023-04-13T07:36:47.030Z,0.90
2023-04-13T07:40:48.734Z,0.60
2023-04-13T07:44:52.389Z,0.70
2023-04-13T07:48:54.194Z,0.60
2023-04-13T07:52:55.886Z,0.70
2023-04-13T07:56:58.212Z,0.82
2023-04-13T08:00:59.870Z,0.80
2023-04-13T08:05:01.761Z,0.88
2023-04-13T08:09:04.014Z,0.80
2023-04-13T08:13:05.805Z,0.70
2023-04-13T08:17:07.894Z,0.85
2023-04-13T08:21:11.187Z,0.95
2023-04-13T08:25:12.855Z,0.77
2023-04-13T08:29:15.217Z,1.00
2023-04-13T08:33:16.858Z,1.23
2023-04-13T08:37:19.946Z,0.82
2023-04-13T08:41:22.519Z,1.20
2023-04-13T08:45:24.562Z,0.98
2023-04-13T08:49:27.200Z,1.25
2023-04-13T08:53:29.829Z,1.37
2023-04-13T08:57:32.097Z,1.37
2023-04-13T09:01:37.342Z,1.70
2023-04-13T09:05:41.165Z,1.30
2023-04-13T09:09:45.626Z,1.30
2023-04-13T09:13:51.910Z,1.52
2023-04-13T09:17:54.010Z,1.50
2023-04-13T09:21:55.969Z,1.70
2023-04-13T09:26:07.996Z,1.42
2023-04-13T09:30:11.235Z,1.58
2023-04-13T09:34:13.954Z,1.67
2023-04-13T09:38:16.195Z,1.20
2023-04-13T09:42:19.232Z,1.17
2023-04-13T09:46:21.441Z,1.20
2023-04-13T09:50:26.920Z,1.37
2023-04-13T09:54:28.597Z,1.60
2023-04-13T09:58:31.165Z,1.52
2023-04-13T10:02:33.889Z,1.35
2023-04-13T10:06:40.164Z,1.62
2023-04-13T10:10:42.031Z,1.80
2023-04-13T10:14:48.361Z,2.75
2023-04-13T10:19:08.915Z,2.20
2023-04-13T10:23:11.041Z,1.90
2023-04-13T10:27:18.162Z,2.53
2023-04-13T10:31:20.062Z,1.85
2023-04-13T10:35:21.787Z,2.03
2023-04-13T10:39:27.983Z,2.72
2023-04-13T10:43:31.503Z,2.37
2023-04-13T10:47:37.189Z,2.15
2023-04-13T10:51:43.350Z,2.28
2023-04-13T10:55:45.199Z,2.35
2023-04-13T10:59:58.067Z,2.08
2023-04-13T11:04:07.493Z,2.03
2023-04-13T11:08:20.719Z,2.10
2023-04-13T11:12:22.999Z,1.95
2023-04-13T11:16:24.721Z,1.67
2023-04-13T11:20:33.752Z,1.73
2023-04-13T11:24:35.759Z,1.85
2023-04-13T11:28:40.477Z,1.70
2023-04-13T11:32:45.227Z,1.75
2023-04-13T11:36:49.635Z,2.00
2023-04-13T11:40:58.954Z,1.90
2023-04-13T11:45:11.202Z,1.73
2023-04-13T11:49:12.910Z,1.77
2023-04-13T11:53:15.190Z,1.45
2023-04-13T11:57:18.026Z,1.58
2023-04-13T12:01:26.300Z,2.40
2023-04-13T12:05:33.140Z,1.30
2023-04-13T12:14:06.338Z,1.60
2023-04-13T12:18:15.738Z,1.60
2023-04-13T12:22:20.448Z,1.83
2023-04-13T12:27:10.176Z,1.27
2023-04-13T12:30:47.676Z,2.10
2023-04-13T12:34:49.316Z,1.85
2023-04-13T12:38:50.967Z,1.65
2023-04-13T12:42:52.807Z,1.80
2023-04-13T12:46:54.692Z,1.67
2023-04-13T12:50:56.405Z,1.87
2023-04-13T12:55:02.313Z,2.15
2023-04-13T12:59:04.367Z,2.30
2023-04-13T13:03:13.708Z,1.95
2023-04-13T13:07:17.049Z,1.65
2023-04-13T13:11:18.797Z,1.55
2023-04-13T13:15:20.494Z,1.30
2023-04-13T13:19:22.344Z,1.20
2023-04-13T13:23:23.949Z,1.33
2023-04-13T13:31:30.318Z,1.60
2023-04-13T13:35:33.138Z,1.40
2023-04-13T13:39:35.518Z,1.85
2023-04-13T13:43:38.070Z,1.58
2023-04-13T13:47:39.758Z,1.80
2023-04-13T13:51:42.256Z,1.62
2023-04-13T13:55:43.979Z,1.55
2023-04-13T13:59:48.115Z,1.23
2023-04-13T14:03:51.152Z,1.70
2023-04-13T14:07:53.392Z,1.65
2023-04-13T14:11:55.806Z,1.50
2023-04-13T14:15:57.493Z,1.00
2023-04-13T14:19:59.249Z,1.20
2023-04-13T14:24:00.922Z,1.75
2023-04-13T14:28:02.626Z,1.42
2023-04-13T14:32:04.377Z,1.55
2023-04-13T14:36:07.024Z,1.77
2023-04-13T14:40:14.332Z,1.15
2023-04-13T14:44:16.217Z,1.42
2023-04-13T14:48:17.883Z,1.50
2023-04-13T14:52:19.763Z,2.30
2023-04-13T14:56:21.747Z,1.60
2023-04-13T15:00:38.302Z,1.33
2023-04-13T15:04:42.477Z,1.10
2023-04-13T15:08:45.249Z,1.30
2023-04-13T15:12:48.047Z,0.90
2023-04-13T15:16:49.818Z,1.25
2023-04-13T15:20:51.684Z,0.98
2023-04-13T15:24:53.430Z,1.60
2023-04-13T15:28:55.142Z,1.83
2023-04-13T15:32:59.291Z,1.37
2023-04-13T15:37:01.093Z,1.35
2023-04-13T15:41:03.138Z,1.27
2023-04-13T15:45:06.934Z,1.48
2023-04-13T15:49:08.521Z,1.40
2023-04-13T15:53:10.244Z,1.08
2023-04-13T15:57:12.088Z,1.08
2023-04-13T16:01:14.341Z,1.17
2023-04-13T16:05:16.354Z,1.25
2023-04-13T16:09:18.444Z,1.50
2023-04-13T16:13:20.400Z,1.25
2023-04-13T16:17:30.909Z,1.40
2023-04-13T16:21:32.819Z,1.40
2023-04-13T16:25:34.468Z,1.70
2023-04-13T16:29:36.454Z,1.27
2023-04-13T16:33:38.208Z,1.17
2023-04-13T16:37:44.877Z,1.40
2023-04-13T16:41:47.022Z,1.45
2023-04-13T16:45:48.840Z,1.48
2023-04-13T16:49:50.867Z,2.12
2023-04-13T16:53:53.245Z,1.60
2023-04-13T16:57:55.097Z,1.58
2023-04-13T17:01:56.752Z,1.15
2023-04-13T17:05:58.434Z,1.40
2023-04-13T17:10:00.293Z,1.27
2023-04-13T17:14:02.066Z,1.08
2023-04-13T17:18:04.169Z,1.23
2023-04-13T17:22:05.833Z,1.42
2023-04-13T17:26:07.447Z,1.30
2023-04-13T17:30:09.556Z,1.23
2023-04-13T17:34:11.400Z,1.10
2023-04-13T17:38:13.102Z,1.10
2023-04-13T17:42:15.399Z,0.95
2023-04-13T17:46:17.124Z,1.33
2023-04-13T17:50:18.894Z,1.10
2023-04-13T17:54:20.602Z,1.17
2023-04-13T17:58:22.243Z,1.10
2023-04-13T18:02:24.268Z,1.08
2023-04-13T18:06:27.084Z,1.30
2023-04-13T18:10:28.778Z,1.40
2023-04-13T18:14:30.449Z,1.15
2023-04-13T18:18:32.268Z,1.02
2023-04-13T18:22:34.667Z,1.23
2023-04-13T18:26:36.332Z,1.20
2023-04-13T18:30:38.030Z,1.23
2023-04-13T18:34:42.455Z,1.00
2023-04-13T18:38:45.043Z,1.23
2023-04-13T18:42:49.866Z,1.17
2023-04-13T18:46:51.563Z,1.40
2023-04-13T18:50:53.291Z,1.73
2023-04-13T18:54:55.256Z,1.50
2023-04-13T18:58:56.984Z,1.73
2023-04-13T19:02:58.879Z,1.27
2023-04-13T19:07:00.733Z,1.48
2023-04-13T19:11:02.367Z,1.10
2023-04-13T19:15:04.342Z,1.73
2023-04-13T19:19:06.003Z,1.67
2023-04-13T19:23:07.698Z,1.27
2023-04-13T19:27:09.305Z,1.20
2023-04-13T19:31:11.743Z,1.67
2023-04-13T19:35:13.714Z,1.55
2023-04-13T19:39:15.477Z,1.20
2023-04-13T19:43:20.601Z,1.25
2023-04-13T19:47:22.282Z,1.33
2023-04-13T19:51:31.117Z,1.50
2023-04-13T19:55:33.375Z,1.30
2023-04-13T19:59:35.058Z,1.30
2023-04-13T20:03:36.951Z,1.50
2023-04-13T20:07:38.711Z,1.08
2023-04-13T20:11:41.674Z,1.40
2023-04-13T20:15:43.408Z,1.37
2023-04-13T20:19:45.438Z,1.35
2023-04-13T20:23:47.102Z,1.27
2023-04-13T20:27:48.998Z,1.10
2023-04-13T20:31:50.986Z,1.00
2023-04-13T20:35:53.589Z,1.27
2023-04-13T20:39:55.215Z,1.30
2023-04-13T20:43:58.700Z,1.45
2023-04-13T20:52:24.519Z,1.40
2023-04-13T20:56:26.274Z,1.75
2023-04-13T21:00:28.482Z,1.12
2023-04-13T21:04:30.642Z,1.87
2023-04-13T21:08:32.396Z,1.62
2023-04-13T21:12:34.005Z,1.40
2023-04-13T21:16:35.739Z,1.73
2023-04-13T21:20:42.933Z,1.70
2023-04-13T21:28:46.538Z,1.40
2023-04-13T21:32:48.980Z,1.58
2023-04-13T21:36:51.904Z,1.50
2023-04-13T21:40:54.018Z,1.40
2023-04-13T21:44:57.003Z,2.00
2023-04-13T21:48:58.998Z,1.60
2023-04-13T21:53:00.804Z,1.67
2023-04-13T21:57:02.470Z,1.37
2023-04-13T22:01:04.458Z,1.20
2023-04-13T22:05:06.834Z,1.77
2023-04-13T22:09:08.519Z,1.45
2023-04-13T22:13:10.351Z,1.10
2023-04-13T22:17:13.645Z,1.15
2023-04-13T22:21:16.227Z,1.70
2023-04-13T22:25:17.912Z,1.20
2023-04-13T22:29:19.623Z,1.60
2023-04-13T22:33:21.515Z,1.23
2023-04-13T22:37:23.251Z,1.40
2023-04-13T22:41:25.223Z,1.85
2023-04-13T22:45:26.902Z,1.87
2023-04-13T22:49:32.039Z,1.23
2023-04-13T22:53:33.677Z,1.50
2023-04-13T22:57:35.438Z,1.73
2023-04-13T23:01:37.139Z,1.25
2023-04-13T23:05:39.279Z,1.90
2023-04-13T23:09:40.903Z,1.40
2023-04-13T23:13:43.046Z,1.33
2023-04-13T23:17:44.772Z,1.15
2023-04-13T23:21:46.776Z,1.25
2023-04-13T23:25:50.005Z,1.80
2023-04-13T23:29:51.680Z,1.52
2023-04-13T23:33:54.978Z,1.35
2023-04-13T23:37:56.909Z,1.65
2023-04-13T23:41:58.532Z,1.40
2023-04-13T23:46:00.409Z,1.30
2023-04-13T23:50:02.646Z,1.20
2023-04-13T23:54:04.353Z,1.20
2023-04-13T23:58:06.101Z,1.30
